sensor_id;sensor_type;location;lat;lon;timestamp;pressure;altitude;pressure_sealevel;temperature;humidity
19783;BME280;10051;40.294;-3.754;2022-08-01T00:01:47;94245.38;;;30.91;23.28
19783;BME280;10051;40.294;-3.754;2022-08-01T00:04:13;94150.59;;;30.15;23.96
19783;BME280;10051;40.294;-3.754;2022-08-01T00:06:38;94223.50;;;30.40;23.78
19783;BME280;10051;40.294;-3.754;2022-08-01T00:11:29;94173.31;;;29.86;23.71
19783;BME280;10051;40.294;-3.754;2022-08-01T00:13:54;94265.69;;;30.45;23.44
19783;BME280;10051;40.294;-3.754;2022-08-01T00:16:20;94283.75;;;30.55;23.32
19783;BME280;10051;40.294;-3.754;2022-08-01T00:18:49;94253.13;;;30.23;23.27
19783;BME280;10051;40.294;-3.754;2022-08-01T00:21:15;94165.78;;;29.66;23.22
19783;BME280;10051;40.294;-3.754;2022-08-01T00:23:40;94269.28;;;30.34;22.71
19783;BME280;10051;40.294;-3.754;2022-08-01T00:26:06;94274.34;;;30.32;23.38
19783;BME280;10051;40.294;-3.754;2022-08-01T00:28:31;94247.88;;;30.05;23.93
19783;BME280;10051;40.294;-3.754;2022-08-01T00:30:57;94174.84;;;29.49;24.75
19783;BME280;10051;40.294;-3.754;2022-08-01T00:33:22;94188.75;;;29.51;25.43
19783;BME280;10051;40.294;-3.754;2022-08-01T00:35:48;94269.09;;;30.14;25.94
19783;BME280;10051;40.294;-3.754;2022-08-01T00:38:13;94275.53;;;30.27;25.72
19783;BME280;10051;40.294;-3.754;2022-08-01T00:40:39;94210.50;;;29.82;25.50
19783;BME280;10051;40.294;-3.754;2022-08-01T00:43:05;94242.81;;;30.07;25.56
19783;BME280;10051;40.294;-3.754;2022-08-01T00:45:30;94113.16;;;29.22;25.69
19783;BME280;10051;40.294;-3.754;2022-08-01T00:47:56;94195.63;;;29.59;26.24
19783;BME280;10051;40.294;-3.754;2022-08-01T00:50:21;94110.31;;;28.91;26.00
19783;BME280;10051;40.294;-3.754;2022-08-01T00:52:48;94216.19;;;29.57;26.24
19783;BME280;10051;40.294;-3.754;2022-08-01T00:55:15;94270.78;;;30.01;26.15
19783;BME280;10051;40.294;-3.754;2022-08-01T00:57:40;94263.31;;;30.12;26.22
19783;BME280;10051;40.294;-3.754;2022-08-01T01:00:06;94242.59;;;29.87;26.81
19783;BME280;10051;40.294;-3.754;2022-08-01T01:02:32;94267.31;;;30.00;26.69
19783;BME280;10051;40.294;-3.754;2022-08-01T01:04:58;94281.66;;;29.93;27.16
19783;BME280;10051;40.294;-3.754;2022-08-01T01:07:50;94279.72;;;29.90;27.40
19783;BME280;10051;40.294;-3.754;2022-08-01T01:10:31;94218.84;;;29.60;27.76
19783;BME280;10051;40.294;-3.754;2022-08-01T01:13:13;94158.53;;;29.07;27.84
19783;BME280;10051;40.294;-3.754;2022-08-01T01:15:56;94280.19;;;29.81;28.47
19783;BME280;10051;40.294;-3.754;2022-08-01T01:18:49;94272.41;;;29.87;28.33
19783;BME280;10051;40.294;-3.754;2022-08-01T01:29:31;94246.25;;;29.70;28.95
19783;BME280;10051;40.294;-3.754;2022-08-01T01:32:09;94217.75;;;29.54;28.87
19783;BME280;10051;40.294;-3.754;2022-08-01T01:34:37;94265.06;;;29.88;29.08
19783;BME280;10051;40.294;-3.754;2022-08-01T01:37:07;94269.63;;;29.94;29.19
19783;BME280;10051;40.294;-3.754;2022-08-01T01:39:34;94242.38;;;29.71;29.07
19783;BME280;10051;40.294;-3.754;2022-08-01T01:42:03;94273.47;;;30.01;29.26
19783;BME280;10051;40.294;-3.754;2022-08-01T01:44:30;94225.00;;;29.64;29.42
19783;BME280;10051;40.294;-3.754;2022-08-01T01:46:56;94197.66;;;29.48;29.74
19783;BME280;10051;40.294;-3.754;2022-08-01T01:49:25;94225.91;;;29.47;30.26
19783;BME280;10051;40.294;-3.754;2022-08-01T01:51:54;94266.75;;;29.71;30.53
19783;BME280;10051;40.294;-3.754;2022-08-01T01:54:21;94186.75;;;29.02;31.22
19783;BME280;10051;40.294;-3.754;2022-08-01T01:56:49;94222.63;;;29.17;31.30
19783;BME280;10051;40.294;-3.754;2022-08-01T01:59:21;94260.81;;;29.34;31.62
19783;BME280;10051;40.294;-3.754;2022-08-01T02:01:51;94260.06;;;29.30;31.96
19783;BME280;10051;40.294;-3.754;2022-08-01T02:04:18;94203.41;;;28.97;31.89
19783;BME280;10051;40.294;-3.754;2022-08-01T02:06:46;94203.03;;;28.99;32.34
19783;BME280;10051;40.294;-3.754;2022-08-01T02:09:15;94207.66;;;28.98;32.19
19783;BME280;10051;40.294;-3.754;2022-08-01T02:11:41;94193.34;;;29.01;32.05
19783;BME280;10051;40.294;-3.754;2022-08-01T02:14:09;94215.25;;;29.21;31.85
19783;BME280;10051;40.294;-3.754;2022-08-01T02:16:36;94208.75;;;29.12;32.40
19783;BME280;10051;40.294;-3.754;2022-08-01T02:19:04;94156.38;;;28.73;32.60
19783;BME280;10051;40.294;-3.754;2022-08-01T02:21:35;94216.50;;;29.09;32.79
19783;BME280;10051;40.294;-3.754;2022-08-01T02:24:20;94260.56;;;29.10;34.01
19783;BME280;10051;40.294;-3.754;2022-08-01T02:26:52;94255.97;;;29.03;34.47
19783;BME280;10051;40.294;-3.754;2022-08-01T02:29:24;94264.81;;;29.11;35.12
19783;BME280;10051;40.294;-3.754;2022-08-01T02:31:54;94257.53;;;28.97;35.67
19783;BME280;10051;40.294;-3.754;2022-08-01T02:34:20;94220.19;;;28.63;35.55
19783;BME280;10051;40.294;-3.754;2022-08-01T02:36:47;94260.31;;;28.90;35.57
19783;BME280;10051;40.294;-3.754;2022-08-01T02:39:16;94241.00;;;28.84;35.50
19783;BME280;10051;40.294;-3.754;2022-08-01T02:41:48;94258.66;;;29.07;35.70
19783;BME280;10051;40.294;-3.754;2022-08-01T02:44:23;94188.53;;;28.60;35.79
19783;BME280;10051;40.294;-3.754;2022-08-01T02:47:00;94259.06;;;29.02;35.75
19783;BME280;10051;40.294;-3.754;2022-08-01T02:49:31;94258.63;;;29.14;35.50
19783;BME280;10051;40.294;-3.754;2022-08-01T02:51:59;94204.31;;;28.76;34.94
19783;BME280;10051;40.294;-3.754;2022-08-01T02:54:26;94221.25;;;28.87;34.87
19783;BME280;10051;40.294;-3.754;2022-08-01T02:56:53;94226.63;;;28.94;34.71
19783;BME280;10051;40.294;-3.754;2022-08-01T02:59:22;94160.34;;;28.54;34.57
19783;BME280;10051;40.294;-3.754;2022-08-01T03:01:54;94241.66;;;29.03;34.97
19783;BME280;10051;40.294;-3.754;2022-08-01T03:04:22;94239.72;;;29.03;35.29
19783;BME280;10051;40.294;-3.754;2022-08-01T03:06:48;94252.84;;;29.08;35.28
19783;BME280;10051;40.294;-3.754;2022-08-01T03:09:14;94218.59;;;28.84;34.86
19783;BME280;10051;40.294;-3.754;2022-08-01T03:11:41;94267.94;;;29.02;35.30
19783;BME280;10051;40.294;-3.754;2022-08-01T03:14:10;94266.41;;;29.01;35.96
19783;BME280;10051;40.294;-3.754;2022-08-01T03:16:38;94223.63;;;28.74;35.74
19783;BME280;10051;40.294;-3.754;2022-08-01T03:19:04;94267.19;;;28.98;35.75
19783;BME280;10051;40.294;-3.754;2022-08-01T03:21:31;94257.16;;;28.99;35.58
19783;BME280;10051;40.294;-3.754;2022-08-01T03:24:00;94224.41;;;28.78;35.87
19783;BME280;10051;40.294;-3.754;2022-08-01T03:26:28;94198.97;;;28.58;36.21
19783;BME280;10051;40.294;-3.754;2022-08-01T03:29:00;94175.50;;;28.40;36.34
19783;BME280;10051;40.294;-3.754;2022-08-01T03:31:27;94149.34;;;28.19;36.16
19783;BME280;10051;40.294;-3.754;2022-08-01T03:33:54;94150.13;;;28.12;36.10
19783;BME280;10051;40.294;-3.754;2022-08-01T03:36:26;94217.13;;;28.54;36.39
19783;BME280;10051;40.294;-3.754;2022-08-01T03:38:56;94222.16;;;28.62;36.32
19783;BME280;10051;40.294;-3.754;2022-08-01T03:41:24;94197.88;;;28.41;36.56
19783;BME280;10051;40.294;-3.754;2022-08-01T03:43:57;94268.06;;;28.81;36.52
19783;BME280;10051;40.294;-3.754;2022-08-01T03:46:30;94227.56;;;28.59;36.60
19783;BME280;10051;40.294;-3.754;2022-08-01T03:49:00;94206.38;;;28.43;36.28
19783;BME280;10051;40.294;-3.754;2022-08-01T03:51:30;94234.91;;;28.55;36.26
19783;BME280;10051;40.294;-3.754;2022-08-01T03:53:59;94246.06;;;28.64;36.27
19783;BME280;10051;40.294;-3.754;2022-08-01T03:56:26;94235.69;;;28.52;36.48
19783;BME280;10051;40.294;-3.754;2022-08-01T03:58:53;94169.41;;;28.07;36.42
19783;BME280;10051;40.294;-3.754;2022-08-01T04:01:19;94217.19;;;28.43;36.43
19783;BME280;10051;40.294;-3.754;2022-08-01T04:03:45;94228.78;;;28.43;36.41
19783;BME280;10051;40.294;-3.754;2022-08-01T04:06:11;94268.88;;;28.67;36.89
19783;BME280;10051;40.294;-3.754;2022-08-01T04:08:39;94216.06;;;28.29;37.03
19783;BME280;10051;40.294;-3.754;2022-08-01T04:11:05;94265.03;;;28.60;37.22
19783;BME280;10051;40.294;-3.754;2022-08-01T04:13:33;94257.31;;;28.52;37.33
19783;BME280;10051;40.294;-3.754;2022-08-01T04:15:58;94198.75;;;28.09;37.40
19783;BME280;10051;40.294;-3.754;2022-08-01T04:18:31;94117.81;;;27.61;37.59
19783;BME280;10051;40.294;-3.754;2022-08-01T04:20:57;94211.88;;;28.07;38.44
19783;BME280;10051;40.294;-3.754;2022-08-01T04:23:24;94246.25;;;28.13;39.03
19783;BME280;10051;40.294;-3.754;2022-08-01T04:25:52;94218.09;;;27.93;39.53
19783;BME280;10051;40.294;-3.754;2022-08-01T04:28:18;94230.06;;;27.92;39.83
19783;BME280;10051;40.294;-3.754;2022-08-01T04:30:47;94250.50;;;27.89;40.55
19783;BME280;10051;40.294;-3.754;2022-08-01T04:33:16;94264.41;;;27.95;41.19
19783;BME280;10051;40.294;-3.754;2022-08-01T04:35:46;94231.25;;;27.72;41.88
19783;BME280;10051;40.294;-3.754;2022-08-01T04:38:17;94251.28;;;27.60;42.17
19783;BME280;10051;40.294;-3.754;2022-08-01T04:40:44;94240.50;;;27.60;42.64
19783;BME280;10051;40.294;-3.754;2022-08-01T04:43:13;94237.78;;;27.46;43.06
19783;BME280;10051;40.294;-3.754;2022-08-01T04:45:39;94281.38;;;27.70;43.91
19783;BME280;10051;40.294;-3.754;2022-08-01T04:48:06;94197.28;;;27.10;44.12
19783;BME280;10051;40.294;-3.754;2022-08-01T04:50:32;94134.00;;;26.71;44.06
19783;BME280;10051;40.294;-3.754;2022-08-01T04:52:57;94293.34;;;27.61;44.37
19783;BME280;10051;40.294;-3.754;2022-08-01T04:55:23;94230.03;;;27.26;44.76
19783;BME280;10051;40.294;-3.754;2022-08-01T04:57:48;94251.25;;;27.28;44.50
19783;BME280;10051;40.294;-3.754;2022-08-01T05:00:15;94250.47;;;27.16;44.28
19783;BME280;10051;40.294;-3.754;2022-08-01T05:02:43;94257.41;;;27.21;44.40
19783;BME280;10051;40.294;-3.754;2022-08-01T05:05:09;94269.00;;;27.33;44.35
19783;BME280;10051;40.294;-3.754;2022-08-01T05:07:35;94242.78;;;27.15;44.76
19783;BME280;10051;40.294;-3.754;2022-08-01T05:10:03;94233.50;;;27.12;44.30
19783;BME280;10051;40.294;-3.754;2022-08-01T05:12:29;94263.22;;;27.34;43.99
19783;BME280;10051;40.294;-3.754;2022-08-01T05:14:54;94221.91;;;26.94;44.47
19783;BME280;10051;40.294;-3.754;2022-08-01T05:17:20;94255.88;;;27.13;44.70
19783;BME280;10051;40.294;-3.754;2022-08-01T05:19:46;94223.44;;;26.91;45.23
19783;BME280;10051;40.294;-3.754;2022-08-01T05:22:11;94251.97;;;27.03;44.92
19783;BME280;10051;40.294;-3.754;2022-08-01T05:24:39;94294.44;;;27.31;44.96
19783;BME280;10051;40.294;-3.754;2022-08-01T05:27:04;94299.06;;;27.27;45.03
19783;BME280;10051;40.294;-3.754;2022-08-01T05:29:31;94248.88;;;26.86;45.21
19783;BME280;10051;40.294;-3.754;2022-08-01T05:31:57;94275.47;;;26.95;44.96
19783;BME280;10051;40.294;-3.754;2022-08-01T05:34:25;94256.53;;;26.81;44.88
19783;BME280;10051;40.294;-3.754;2022-08-01T05:36:50;94297.88;;;27.07;44.96
19783;BME280;10051;40.294;-3.754;2022-08-01T05:39:16;94277.06;;;27.04;44.82
19783;BME280;10051;40.294;-3.754;2022-08-01T05:41:42;94289.75;;;26.99;44.77
19783;BME280;10051;40.294;-3.754;2022-08-01T05:44:08;94314.06;;;27.10;44.82
19783;BME280;10051;40.294;-3.754;2022-08-01T05:46:33;94298.59;;;26.93;44.75
19783;BME280;10051;40.294;-3.754;2022-08-01T05:49:00;94315.63;;;27.19;44.05
19783;BME280;10051;40.294;-3.754;2022-08-01T05:51:27;94326.03;;;27.16;43.83
19783;BME280;10051;40.294;-3.754;2022-08-01T05:53:53;94199.41;;;26.53;43.01
19783;BME280;10051;40.294;-3.754;2022-08-01T05:56:19;94269.81;;;28.13;41.01
19783;BME280;10051;40.294;-3.754;2022-08-01T05:58:46;94276.34;;;29.22;38.53
19783;BME280;10051;40.294;-3.754;2022-08-01T06:01:11;94296.00;;;29.37;38.35
19783;BME280;10051;40.294;-3.754;2022-08-01T06:03:37;94308.94;;;29.01;39.53
19783;BME280;10051;40.294;-3.754;2022-08-01T06:06:03;94302.56;;;28.37;40.73
19783;BME280;10051;40.294;-3.754;2022-08-01T06:08:29;94246.66;;;27.72;41.42
19783;BME280;10051;40.294;-3.754;2022-08-01T06:10:55;94314.56;;;28.10;41.28
19783;BME280;10051;40.294;-3.754;2022-08-01T06:13:20;94319.22;;;28.17;41.86
19783;BME280;10051;40.294;-3.754;2022-08-01T06:15:46;94231.25;;;27.65;41.73
19783;BME280;10051;40.294;-3.754;2022-08-01T06:18:12;94272.13;;;27.93;41.73
19783;BME280;10051;40.294;-3.754;2022-08-01T06:20:37;94247.81;;;27.78;41.75
19783;BME280;10051;40.294;-3.754;2022-08-01T06:23:03;94284.44;;;28.08;41.51
19783;BME280;10051;40.294;-3.754;2022-08-01T06:25:29;94280.59;;;28.05;41.91
19783;BME280;10051;40.294;-3.754;2022-08-01T06:27:54;94206.91;;;27.25;42.75
19783;BME280;10051;40.294;-3.754;2022-08-01T06:30:20;94282.53;;;27.69;42.50
19783;BME280;10051;40.294;-3.754;2022-08-01T06:32:45;94272.53;;;27.62;43.13
19783;BME280;10051;40.294;-3.754;2022-08-01T06:35:13;94335.41;;;27.92;43.13
19783;BME280;10051;40.294;-3.754;2022-08-01T06:37:38;94278.69;;;27.70;43.30
19783;BME280;10051;40.294;-3.754;2022-08-01T06:40:05;94272.91;;;27.89;42.56
19783;BME280;10051;40.294;-3.754;2022-08-01T06:42:31;94314.56;;;28.28;42.66
19783;BME280;10051;40.294;-3.754;2022-08-01T06:45:02;94335.75;;;28.52;42.42
19783;BME280;10051;40.294;-3.754;2022-08-01T06:47:27;94259.38;;;28.15;42.07
19783;BME280;10051;40.294;-3.754;2022-08-01T06:49:53;94264.00;;;28.03;42.48
19783;BME280;10051;40.294;-3.754;2022-08-01T06:52:18;94267.47;;;27.86;42.91
19783;BME280;10051;40.294;-3.754;2022-08-01T06:54:44;94348.53;;;28.26;43.39
19783;BME280;10051;40.294;-3.754;2022-08-01T06:57:09;94314.59;;;27.96;44.30
19783;BME280;10051;40.294;-3.754;2022-08-01T06:59:35;94255.91;;;27.42;45.42
19783;BME280;10051;40.294;-3.754;2022-08-01T07:02:00;94342.34;;;28.03;45.22
19783;BME280;10051;40.294;-3.754;2022-08-01T07:04:26;94262.13;;;27.53;44.52
19783;BME280;10051;40.294;-3.754;2022-08-01T07:06:52;94328.47;;;28.19;45.16
19783;BME280;10051;40.294;-3.754;2022-08-01T07:09:17;94311.88;;;27.96;45.34
19783;BME280;10051;40.294;-3.754;2022-08-01T07:11:43;94274.81;;;27.71;45.59
19783;BME280;10051;40.294;-3.754;2022-08-01T07:14:08;94352.75;;;28.52;44.84
19783;BME280;10051;40.294;-3.754;2022-08-01T07:16:34;94312.22;;;28.41;44.98
19783;BME280;10051;40.294;-3.754;2022-08-01T07:18:59;94265.16;;;27.99;46.38
19783;BME280;10051;40.294;-3.754;2022-08-01T07:21:25;94317.19;;;28.54;45.55
19783;BME280;10051;40.294;-3.754;2022-08-01T07:23:50;94363.84;;;28.94;45.45
19783;BME280;10051;40.294;-3.754;2022-08-01T07:26:15;94205.31;;;28.08;44.51
19783;BME280;10051;40.294;-3.754;2022-08-01T07:28:42;94357.66;;;29.01;44.72
19783;BME280;10051;40.294;-3.754;2022-08-01T07:31:08;94336.69;;;29.19;43.98
19783;BME280;10051;40.294;-3.754;2022-08-01T07:33:33;94372.09;;;29.58;44.30
19783;BME280;10051;40.294;-3.754;2022-08-01T07:35:59;94328.31;;;29.66;43.87
19783;BME280;10051;40.294;-3.754;2022-08-01T07:38:24;94309.88;;;29.47;44.02
19783;BME280;10051;40.294;-3.754;2022-08-01T07:40:50;94304.03;;;29.56;43.91
19783;BME280;10051;40.294;-3.754;2022-08-01T07:43:16;94241.50;;;29.28;43.39
19783;BME280;10051;40.294;-3.754;2022-08-01T07:45:41;94375.38;;;30.40;43.13
19783;BME280;10051;40.294;-3.754;2022-08-01T07:48:07;94349.84;;;30.37;43.60
19783;BME280;10051;40.294;-3.754;2022-08-01T07:50:33;94349.13;;;30.30;44.37
19783;BME280;10051;40.294;-3.754;2022-08-01T07:52:59;94384.25;;;30.44;44.63
19783;BME280;10051;40.294;-3.754;2022-08-01T07:55:24;94342.31;;;30.14;43.84
19783;BME280;10051;40.294;-3.754;2022-08-01T07:57:50;94336.66;;;30.36;43.20
19783;BME280;10051;40.294;-3.754;2022-08-01T08:00:15;94370.09;;;30.67;43.64
19783;BME280;10051;40.294;-3.754;2022-08-01T08:02:41;94302.19;;;30.36;42.37
19783;BME280;10051;40.294;-3.754;2022-08-01T08:05:11;94348.50;;;30.91;42.24
19783;BME280;10051;40.294;-3.754;2022-08-01T08:07:36;94333.00;;;30.92;42.48
19783;BME280;10051;40.294;-3.754;2022-08-01T08:10:03;94387.31;;;31.26;42.61
19783;BME280;10051;40.294;-3.754;2022-08-01T08:12:31;94325.19;;;30.63;42.74
19783;BME280;10051;40.294;-3.754;2022-08-01T08:14:57;94390.66;;;31.03;42.94
19783;BME280;10051;40.294;-3.754;2022-08-01T08:17:25;94384.00;;;31.08;42.80
19783;BME280;10051;40.294;-3.754;2022-08-01T08:19:50;94326.19;;;30.76;43.11
19783;BME280;10051;40.294;-3.754;2022-08-01T08:22:16;94390.78;;;31.27;43.16
19783;BME280;10051;40.294;-3.754;2022-08-01T08:24:42;94317.44;;;30.65;43.27
19783;BME280;10051;40.294;-3.754;2022-08-01T08:27:09;94388.47;;;31.25;42.67
19783;BME280;10051;40.294;-3.754;2022-08-01T08:29:35;94343.31;;;31.04;42.37
19783;BME280;10051;40.294;-3.754;2022-08-01T08:32:00;94378.44;;;31.22;42.63
19783;BME280;10051;40.294;-3.754;2022-08-01T08:34:27;94393.97;;;31.14;43.25
19783;BME280;10051;40.294;-3.754;2022-08-01T08:36:54;94363.44;;;31.07;42.81
19783;BME280;10051;40.294;-3.754;2022-08-01T08:39:20;94336.00;;;31.01;42.31
19783;BME280;10051;40.294;-3.754;2022-08-01T08:41:46;94336.66;;;31.09;42.32
19783;BME280;10051;40.294;-3.754;2022-08-01T08:44:12;94329.19;;;31.20;41.55
19783;BME280;10051;40.294;-3.754;2022-08-01T08:46:51;94379.53;;;31.25;42.23
19783;BME280;10051;40.294;-3.754;2022-08-01T08:49:23;94359.97;;;31.06;42.82
19783;BME280;10051;40.294;-3.754;2022-08-01T08:51:50;94390.38;;;31.28;42.90
19783;BME280;10051;40.294;-3.754;2022-08-01T08:54:20;94347.22;;;31.34;42.27
19783;BME280;10051;40.294;-3.754;2022-08-01T08:56:47;94364.72;;;31.60;41.77
19783;BME280;10051;40.294;-3.754;2022-08-01T08:59:13;94387.91;;;31.96;41.74
19783;BME280;10051;40.294;-3.754;2022-08-01T09:01:39;94383.75;;;31.88;42.11
19783;BME280;10051;40.294;-3.754;2022-08-01T09:04:05;94365.69;;;31.15;42.93
19783;BME280;10051;40.294;-3.754;2022-08-01T09:06:31;94296.22;;;30.52;43.38
19783;BME280;10051;40.294;-3.754;2022-08-01T09:08:58;94365.88;;;30.97;43.74
19783;BME280;10051;40.294;-3.754;2022-08-01T09:11:24;94330.34;;;30.88;43.15
19783;BME280;10051;40.294;-3.754;2022-08-01T09:14:07;94373.56;;;31.37;43.08
19783;BME280;10051;40.294;-3.754;2022-08-01T09:16:34;94342.66;;;31.27;41.81
19783;BME280;10051;40.294;-3.754;2022-08-01T09:19:11;94297.69;;;31.26;41.23
19783;BME280;10051;40.294;-3.754;2022-08-01T09:21:38;94380.63;;;31.89;41.90
19783;BME280;10051;40.294;-3.754;2022-08-01T09:24:14;94336.06;;;31.56;41.34
19783;BME280;10051;40.294;-3.754;2022-08-01T09:26:40;94320.19;;;31.82;40.39
19783;BME280;10051;40.294;-3.754;2022-08-01T09:29:07;94366.19;;;32.44;40.01
19783;BME280;10051;40.294;-3.754;2022-08-01T09:31:44;94309.34;;;32.26;41.03
19783;BME280;10051;40.294;-3.754;2022-08-01T09:34:10;94313.59;;;32.51;40.25
19783;BME280;10051;40.294;-3.754;2022-08-01T09:36:56;94320.44;;;32.59;39.14
19783;BME280;10051;40.294;-3.754;2022-08-01T09:39:29;94359.34;;;33.00;39.17
19783;BME280;10051;40.294;-3.754;2022-08-01T09:41:58;94361.22;;;33.03;37.94
19783;BME280;10051;40.294;-3.754;2022-08-01T09:44:40;94331.63;;;32.85;37.62
19783;BME280;10051;40.294;-3.754;2022-08-01T09:47:06;94311.84;;;32.81;37.62
19783;BME280;10051;40.294;-3.754;2022-08-01T09:49:37;94364.28;;;33.25;37.32
19783;BME280;10051;40.294;-3.754;2022-08-01T09:52:29;94359.25;;;33.44;37.10
19783;BME280;10051;40.294;-3.754;2022-08-01T09:55:05;94322.50;;;33.32;36.61
19783;BME280;10051;40.294;-3.754;2022-08-01T09:57:31;94324.44;;;33.31;37.20
19783;BME280;10051;40.294;-3.754;2022-08-01T09:59:58;94362.66;;;33.48;37.10
19783;BME280;10051;40.294;-3.754;2022-08-01T10:02:39;94326.69;;;33.36;37.37
19783;BME280;10051;40.294;-3.754;2022-08-01T10:05:07;94315.81;;;33.16;37.01
19783;BME280;10051;40.294;-3.754;2022-08-01T10:07:34;94320.19;;;33.30;36.84
19783;BME280;10051;40.294;-3.754;2022-08-01T10:10:10;94356.06;;;33.82;35.72
19783;BME280;10051;40.294;-3.754;2022-08-01T10:12:37;94338.78;;;33.72;35.96
19783;BME280;10051;40.294;-3.754;2022-08-01T10:15:03;94338.25;;;33.61;35.37
19783;BME280;10051;40.294;-3.754;2022-08-01T10:17:29;94319.09;;;33.28;35.25
19783;BME280;10051;40.294;-3.754;2022-08-01T10:19:56;94306.63;;;33.10;35.70
19783;BME280;10051;40.294;-3.754;2022-08-01T10:22:23;94280.47;;;33.13;35.95
19783;BME280;10051;40.294;-3.754;2022-08-01T10:24:50;94307.66;;;33.53;36.08
19783;BME280;10051;40.294;-3.754;2022-08-01T10:27:17;94325.84;;;33.93;35.26
19783;BME280;10051;40.294;-3.754;2022-08-01T10:29:50;94274.34;;;33.78;33.32
19783;BME280;10051;40.294;-3.754;2022-08-01T10:32:17;94332.59;;;34.51;35.15
19783;BME280;10051;40.294;-3.754;2022-08-01T10:34:43;94330.56;;;34.55;34.25
19783;BME280;10051;40.294;-3.754;2022-08-01T10:37:10;94303.38;;;34.35;34.00
19783;BME280;10051;40.294;-3.754;2022-08-01T10:39:36;94288.94;;;34.34;30.68
19783;BME280;10051;40.294;-3.754;2022-08-01T10:42:02;94333.28;;;34.55;30.71
19783;BME280;10051;40.294;-3.754;2022-08-01T10:44:30;94309.31;;;34.46;31.54
19783;BME280;10051;40.294;-3.754;2022-08-01T10:47:09;94257.38;;;34.04;31.99
19783;BME280;10051;40.294;-3.754;2022-08-01T10:49:50;94332.94;;;34.53;33.13
19783;BME280;10051;40.294;-3.754;2022-08-01T10:52:20;94303.44;;;34.48;31.90
19783;BME280;10051;40.294;-3.754;2022-08-01T10:54:46;94259.13;;;34.27;31.63
19783;BME280;10051;40.294;-3.754;2022-08-01T10:57:13;94318.16;;;34.80;31.92
19783;BME280;10051;40.294;-3.754;2022-08-01T10:59:51;94305.38;;;34.77;31.51
19783;BME280;10051;40.294;-3.754;2022-08-01T11:02:29;94219.72;;;34.45;30.71
19783;BME280;10051;40.294;-3.754;2022-08-01T11:04:58;94293.78;;;35.15;28.97
19783;BME280;10051;40.294;-3.754;2022-08-01T11:07:55;94322.91;;;35.48;29.87
19783;BME280;10051;40.294;-3.754;2022-08-01T11:10:38;94230.94;;;35.15;28.00
19783;BME280;10051;40.294;-3.754;2022-08-01T11:13:03;94282.44;;;35.55;29.21
19783;BME280;10051;40.294;-3.754;2022-08-01T11:15:36;94275.78;;;35.56;29.33
19783;BME280;10051;40.294;-3.754;2022-08-01T11:18:03;94252.81;;;35.41;29.51
19783;BME280;10051;40.294;-3.754;2022-08-01T11:20:56;94298.50;;;35.79;26.76
19783;BME280;10051;40.294;-3.754;2022-08-01T11:23:23;94229.88;;;35.25;26.04
19783;BME280;10051;40.294;-3.754;2022-08-01T11:30:47;94294.22;;;36.04;26.50
19783;BME280;10051;40.294;-3.754;2022-08-01T11:33:14;94190.50;;;35.36;25.52
19783;BME280;10051;40.294;-3.754;2022-08-01T11:39:26;94250.03;;;35.80;25.29
19783;BME280;10051;40.294;-3.754;2022-08-01T11:41:29;94246.09;;;35.81;24.08
19783;BME280;10051;40.294;-3.754;2022-08-01T11:46:55;94267.09;;;36.32;22.77
19783;BME280;10051;40.294;-3.754;2022-08-01T11:54:42;94180.03;;;36.17;21.82
19783;BME280;10051;40.294;-3.754;2022-08-01T11:57:11;94195.31;;;36.28;21.92
19783;BME280;10051;40.294;-3.754;2022-08-01T11:59:39;94257.88;;;36.61;22.25
19783;BME280;10051;40.294;-3.754;2022-08-01T12:02:18;94258.59;;;36.74;21.28
19783;BME280;10051;40.294;-3.754;2022-08-01T12:04:53;94245.28;;;36.86;21.34
19783;BME280;10051;40.294;-3.754;2022-08-01T12:07:19;94219.44;;;36.65;21.03
19783;BME280;10051;40.294;-3.754;2022-08-01T12:09:45;94253.28;;;36.80;21.99
19783;BME280;10051;40.294;-3.754;2022-08-01T12:12:14;94254.09;;;36.90;21.37
19783;BME280;10051;40.294;-3.754;2022-08-01T12:14:42;94204.97;;;36.64;20.01
19783;BME280;10051;40.294;-3.754;2022-08-01T12:17:08;94154.44;;;36.34;20.00
19783;BME280;10051;40.294;-3.754;2022-08-01T12:19:33;94233.03;;;37.00;19.58
19783;BME280;10051;40.294;-3.754;2022-08-01T12:22:12;94140.44;;;36.54;20.16
19783;BME280;10051;40.294;-3.754;2022-08-01T12:24:41;94106.53;;;36.29;19.35
19783;BME280;10051;40.294;-3.754;2022-08-01T12:27:08;94229.97;;;37.39;18.98
19783;BME280;10051;40.294;-3.754;2022-08-01T12:29:41;94229.97;;;37.39;18.60
19783;BME280;10051;40.294;-3.754;2022-08-01T12:32:41;94228.28;;;37.32;18.20
19783;BME280;10051;40.294;-3.754;2022-08-01T12:35:15;94187.00;;;37.26;18.07
19783;BME280;10051;40.294;-3.754;2022-08-01T12:37:46;94177.38;;;37.22;17.48
19783;BME280;10051;40.294;-3.754;2022-08-01T12:40:15;94155.94;;;37.20;17.55
19783;BME280;10051;40.294;-3.754;2022-08-01T12:42:42;94199.59;;;37.64;16.32
19783;BME280;10051;40.294;-3.754;2022-08-01T12:45:09;94216.38;;;37.85;16.50
19783;BME280;10051;40.294;-3.754;2022-08-01T12:47:37;94216.38;;;37.85;15.86
19783;BME280;10051;40.294;-3.754;2022-08-01T12:50:06;94216.22;;;37.89;15.69
19783;BME280;10051;40.294;-3.754;2022-08-01T12:52:33;94173.41;;;37.73;16.18
19783;BME280;10051;40.294;-3.754;2022-08-01T12:55:19;94208.19;;;38.04;15.75
19783;BME280;10051;40.294;-3.754;2022-08-01T12:57:48;94192.63;;;38.01;16.26
19783;BME280;10051;40.294;-3.754;2022-08-01T13:00:24;94203.31;;;37.99;17.18
19783;BME280;10051;40.294;-3.754;2022-08-01T13:03:04;94190.19;;;38.03;17.37
19783;BME280;10051;40.294;-3.754;2022-08-01T13:05:51;94199.94;;;38.13;16.48
19783;BME280;10051;40.294;-3.754;2022-08-01T13:08:18;94187.28;;;38.16;16.77
19783;BME280;10051;40.294;-3.754;2022-08-01T13:10:45;94170.03;;;37.78;16.92
19783;BME280;10051;40.294;-3.754;2022-08-01T13:13:12;94181.81;;;37.97;16.53
19783;BME280;10051;40.294;-3.754;2022-08-01T13:15:39;94186.22;;;38.04;15.85
19783;BME280;10051;40.294;-3.754;2022-08-01T13:18:26;94178.00;;;38.13;16.45
19783;BME280;10051;40.294;-3.754;2022-08-01T13:23:35;94156.03;;;38.04;16.62
19783;BME280;10051;40.294;-3.754;2022-08-01T13:26:00;94168.22;;;38.40;15.69
19783;BME280;10051;40.294;-3.754;2022-08-01T13:28:27;94171.88;;;38.46;16.48